sensor_id;sensor_type;location;lat;lon;timestamp;pressure;altitude;pressure_sealevel;temperature;humidity
29371;BME280;16357;52.188;7.838;2023-03-16T00:00:45;101260.19;;;4.55;47.36
29371;BME280;16357;52.188;7.838;2023-03-16T00:03:12;101262.84;;;4.55;47.16
29371;BME280;16357;52.188;7.838;2023-03-16T00:05:46;101265.41;;;4.57;47.20
29371;BME280;16357;52.188;7.838;2023-03-16T00:08:13;101260.09;;;4.57;47.43
29371;BME280;16357;52.188;7.838;2023-03-16T00:10:39;101261.78;;;4.58;47.10
29371;BME280;16357;52.188;7.838;2023-03-16T00:13:13;101263.50;;;4.59;47.04
29371;BME280;16357;52.188;7.838;2023-03-16T00:15:41;101263.50;;;4.59;47.30
29371;BME280;16357;52.188;7.838;2023-03-16T00:18:07;101272.25;;;4.61;46.96
29371;BME280;16357;52.188;7.838;2023-03-16T00:20:34;101257.97;;;4.62;47.12
29371;BME280;16357;52.188;7.838;2023-03-16T00:23:00;101252.66;;;4.62;47.20
29371;BME280;16357;52.188;7.838;2023-03-16T00:25:28;101253.50;;;4.62;47.25
29371;BME280;16357;52.188;7.838;2023-03-16T00:27:54;101260.56;;;4.64;47.41
29371;BME280;16357;52.188;7.838;2023-03-16T00:30:21;101256.06;;;4.64;47.35
29371;BME280;16357;52.188;7.838;2023-03-16T00:32:48;101249.91;;;4.64;47.41
29371;BME280;16357;52.188;7.838;2023-03-16T00:35:14;101249.03;;;4.63;47.20
29371;BME280;16357;52.188;7.838;2023-03-16T00:37:41;101238.53;;;4.61;47.54
29371;BME280;16357;52.188;7.838;2023-03-16T00:40:09;101238.63;;;4.60;47.44
29371;BME280;16357;52.188;7.838;2023-03-16T00:42:37;101242.25;;;4.59;47.05
29371;BME280;16357;52.188;7.838;2023-03-16T00:45:04;101229.91;;;4.58;47.55
29371;BME280;16357;52.188;7.838;2023-03-16T00:47:32;101227.38;;;4.56;47.51
29371;BME280;16357;52.188;7.838;2023-03-16T00:50:00;101220.34;;;4.55;47.56
29371;BME280;16357;52.188;7.838;2023-03-16T00:52:27;101216.09;;;4.53;47.50
29371;BME280;16357;52.188;7.838;2023-03-16T00:54:55;101209.09;;;4.52;47.75
29371;BME280;16357;52.188;7.838;2023-03-16T00:57:23;101212.72;;;4.51;47.63
29371;BME280;16357;52.188;7.838;2023-03-16T00:59:50;101211.00;;;4.50;47.57
29371;BME280;16357;52.188;7.838;2023-03-16T01:02:18;101219.94;;;4.49;47.50
29371;BME280;16357;52.188;7.838;2023-03-16T01:04:48;101226.09;;;4.49;47.76
29371;BME280;16357;52.188;7.838;2023-03-16T01:07:16;101221.75;;;4.48;47.58
29371;BME280;16357;52.188;7.838;2023-03-16T01:09:43;101223.66;;;4.46;47.89
29371;BME280;16357;52.188;7.838;2023-03-16T01:12:12;101227.16;;;4.47;47.89
29371;BME280;16357;52.188;7.838;2023-03-16T01:14:40;101236.09;;;4.46;47.60
29371;BME280;16357;52.188;7.838;2023-03-16T01:17:08;101244.06;;;4.46;47.57
29371;BME280;16357;52.188;7.838;2023-03-16T01:19:36;101253.94;;;4.44;48.02
29371;BME280;16357;52.188;7.838;2023-03-16T01:22:04;101261.06;;;4.43;48.09
29371;BME280;16357;52.188;7.838;2023-03-16T01:24:31;101253.28;;;4.40;48.02
29371;BME280;16357;52.188;7.838;2023-03-16T01:26:57;101234.78;;;4.38;48.36
29371;BME280;16357;52.188;7.838;2023-03-16T01:29:24;101242.00;;;4.36;48.05
29371;BME280;16357;52.188;7.838;2023-03-16T01:31:50;101245.63;;;4.35;48.06
29371;BME280;16357;52.188;7.838;2023-03-16T01:34:17;101228.09;;;4.33;48.38
29371;BME280;16357;52.188;7.838;2023-03-16T01:36:46;101216.63;;;4.32;48.32
29371;BME280;16357;52.188;7.838;2023-03-16T01:39:14;101214.19;;;4.29;48.29
29371;BME280;16357;52.188;7.838;2023-03-16T01:41:41;101206.31;;;4.28;48.42
29371;BME280;16357;52.188;7.838;2023-03-16T01:44:13;101192.28;;;4.26;48.27
29371;BME280;16357;52.188;7.838;2023-03-16T01:46:39;101184.63;;;4.21;48.23
29371;BME280;16357;52.188;7.838;2023-03-16T01:49:16;101190.13;;;4.18;48.32
29371;BME280;16357;52.188;7.838;2023-03-16T01:51:59;101186.00;;;4.14;48.66
29371;BME280;16357;52.188;7.838;2023-03-16T01:54:35;101171.22;;;4.10;48.57
29371;BME280;16357;52.188;7.838;2023-03-16T02:02:07;101175.44;;;4.00;48.90
29371;BME280;16357;52.188;7.838;2023-03-16T02:04:42;101165.03;;;3.96;48.82
29371;BME280;16357;52.188;7.838;2023-03-16T02:07:12;101165.25;;;3.93;48.98
29371;BME280;16357;52.188;7.838;2023-03-16T02:09:44;101158.44;;;3.89;48.90
29371;BME280;16357;52.188;7.838;2023-03-16T02:12:13;101163.97;;;3.86;48.99
29371;BME280;16357;52.188;7.838;2023-03-16T02:14:44;101169.47;;;3.83;49.10
29371;BME280;16357;52.188;7.838;2023-03-16T02:17:13;101157.19;;;3.82;49.29
29371;BME280;16357;52.188;7.838;2023-03-16T02:19:50;101158.22;;;3.80;49.18
29371;BME280;16357;52.188;7.838;2023-03-16T02:22:19;101150.34;;;3.78;49.65
29371;BME280;16357;52.188;7.838;2023-03-16T02:24:53;101146.94;;;3.76;49.17
29371;BME280;16357;52.188;7.838;2023-03-16T02:27:42;101146.22;;;3.74;49.55
29371;BME280;16357;52.188;7.838;2023-03-16T02:30:17;101139.31;;;3.71;49.33
29371;BME280;16357;52.188;7.838;2023-03-16T02:32:45;101143.97;;;3.68;49.68
29371;BME280;16357;52.188;7.838;2023-03-16T02:35:13;101144.16;;;3.65;49.73
29371;BME280;16357;52.188;7.838;2023-03-16T02:37:40;101142.69;;;3.61;49.66
29371;BME280;16357;52.188;7.838;2023-03-16T02:40:26;101149.13;;;3.57;49.77
29371;BME280;16357;52.188;7.838;2023-03-16T02:43:02;101141.38;;;3.54;50.14
29371;BME280;16357;52.188;7.838;2023-03-16T02:48:08;101143.69;;;3.45;49.81
29371;BME280;16357;52.188;7.838;2023-03-16T02:50:46;101142.19;;;3.41;49.83
29371;BME280;16357;52.188;7.838;2023-03-16T02:53:15;101148.66;;;3.37;49.97
29371;BME280;16357;52.188;7.838;2023-03-16T02:55:41;101148.94;;;3.33;49.60
29371;BME280;16357;52.188;7.838;2023-03-16T02:58:08;101140.31;;;3.29;50.08
29371;BME280;16357;52.188;7.838;2023-03-16T03:00:35;101136.19;;;3.25;50.11
29371;BME280;16357;52.188;7.838;2023-03-16T03:03:01;101136.38;;;3.22;50.05
29371;BME280;16357;52.188;7.838;2023-03-16T03:05:28;101134.03;;;3.17;50.30
29371;BME280;16357;52.188;7.838;2023-03-16T03:07:55;101136.75;;;3.16;50.41
29371;BME280;16357;52.188;7.838;2023-03-16T03:10:22;101139.53;;;3.14;50.43
29371;BME280;16357;52.188;7.838;2023-03-16T03:12:48;101130.91;;;3.11;50.29
29371;BME280;16357;52.188;7.838;2023-03-16T03:15:15;101137.16;;;3.10;50.58
29371;BME280;16357;52.188;7.838;2023-03-16T03:17:42;101132.81;;;3.08;50.86
29371;BME280;16357;52.188;7.838;2023-03-16T03:20:10;101127.63;;;3.07;50.77
29371;BME280;16357;52.188;7.838;2023-03-16T03:22:46;101124.00;;;3.08;50.76
29371;BME280;16357;52.188;7.838;2023-03-16T03:25:14;101133.75;;;3.07;50.87
29371;BME280;16357;52.188;7.838;2023-03-16T03:27:42;101139.06;;;3.07;51.08
29371;BME280;16357;52.188;7.838;2023-03-16T03:30:10;101133.66;;;3.09;51.02
29371;BME280;16357;52.188;7.838;2023-03-16T03:32:38;101136.22;;;3.11;51.03
29371;BME280;16357;52.188;7.838;2023-03-16T03:35:06;101139.41;;;3.16;51.33
29371;BME280;16357;52.188;7.838;2023-03-16T03:37:33;101145.47;;;3.18;51.10
29371;BME280;16357;52.188;7.838;2023-03-16T03:39:59;101135.63;;;3.20;50.95
29371;BME280;16357;52.188;7.838;2023-03-16T03:42:26;101129.28;;;3.22;51.08
29371;BME280;16357;52.188;7.838;2023-03-16T03:44:52;101128.13;;;3.26;51.24
29371;BME280;16357;52.188;7.838;2023-03-16T03:47:19;101116.38;;;3.30;51.28
29371;BME280;16357;52.188;7.838;2023-03-16T03:49:45;101119.56;;;3.36;51.13
29371;BME280;16357;52.188;7.838;2023-03-16T03:52:12;101110.56;;;3.38;51.24
29371;BME280;16357;52.188;7.838;2023-03-16T03:54:38;101112.94;;;3.43;50.92
29371;BME280;16357;52.188;7.838;2023-03-16T03:57:05;101105.59;;;3.46;51.19
29371;BME280;16357;52.188;7.838;2023-03-16T03:59:31;101100.09;;;3.49;51.06
29371;BME280;16357;52.188;7.838;2023-03-16T04:01:57;101104.25;;;3.54;50.91
29371;BME280;16357;52.188;7.838;2023-03-16T04:04:24;101103.19;;;3.56;50.98
29371;BME280;16357;52.188;7.838;2023-03-16T04:06:50;101111.78;;;3.60;50.79
29371;BME280;16357;52.188;7.838;2023-03-16T04:09:17;101112.44;;;3.63;50.95
29371;BME280;16357;52.188;7.838;2023-03-16T04:11:43;101107.78;;;3.67;50.94
29371;BME280;16357;52.188;7.838;2023-03-16T04:14:10;101104.06;;;3.69;50.76
29371;BME280;16357;52.188;7.838;2023-03-16T04:16:36;101106.59;;;3.71;50.66
29371;BME280;16357;52.188;7.838;2023-03-16T04:19:02;101102.91;;;3.73;50.62
29371;BME280;16357;52.188;7.838;2023-03-16T04:21:29;101090.38;;;3.76;50.75
29371;BME280;16357;52.188;7.838;2023-03-16T04:23:56;101095.47;;;3.79;50.42
29371;BME280;16357;52.188;7.838;2023-03-16T04:26:22;101088.28;;;3.81;50.47
29371;BME280;16357;52.188;7.838;2023-03-16T04:28:50;101086.47;;;3.81;50.30
29371;BME280;16357;52.188;7.838;2023-03-16T04:31:18;101088.91;;;3.84;50.21
29371;BME280;16357;52.188;7.838;2023-03-16T04:33:44;101084.34;;;3.86;49.71
29371;BME280;16357;52.188;7.838;2023-03-16T04:36:10;101078.09;;;3.87;50.27
29371;BME280;16357;52.188;7.838;2023-03-16T04:38:37;101077.03;;;3.90;50.15
29371;BME280;16357;52.188;7.838;2023-03-16T04:41:05;101076.91;;;3.91;50.40
29371;BME280;16357;52.188;7.838;2023-03-16T04:43:33;101073.34;;;3.92;50.27
29371;BME280;16357;52.188;7.838;2023-03-16T04:46:03;101070.56;;;3.94;50.35
29371;BME280;16357;52.188;7.838;2023-03-16T04:48:30;101067.81;;;3.95;50.28
29371;BME280;16357;52.188;7.838;2023-03-16T04:50:58;101065.88;;;3.97;50.03
29371;BME280;16357;52.188;7.838;2023-03-16T04:53:24;101074.59;;;4.00;49.98
29371;BME280;16357;52.188;7.838;2023-03-16T04:55:51;101068.34;;;4.01;50.14
29371;BME280;16357;52.188;7.838;2023-03-16T04:58:17;101069.94;;;4.03;50.05
29371;BME280;16357;52.188;7.838;2023-03-16T05:00:43;101070.78;;;4.04;50.20
29371;BME280;16357;52.188;7.838;2023-03-16T05:03:10;101070.56;;;4.07;49.97
29371;BME280;16357;52.188;7.838;2023-03-16T05:05:37;101058.03;;;4.09;49.92
29371;BME280;16357;52.188;7.838;2023-03-16T05:08:05;101063.13;;;4.12;50.09
29371;BME280;16357;52.188;7.838;2023-03-16T05:10:33;101056.84;;;4.13;49.90
29371;BME280;16357;52.188;7.838;2023-03-16T05:12:59;101068.22;;;4.15;49.67
29371;BME280;16357;52.188;7.838;2023-03-16T05:15:26;101064.41;;;4.19;49.84
29371;BME280;16357;52.188;7.838;2023-03-16T05:17:54;101054.63;;;4.20;49.68
29371;BME280;16357;52.188;7.838;2023-03-16T05:20:24;101049.19;;;4.21;49.92
29371;BME280;16357;52.188;7.838;2023-03-16T05:22:50;101049.09;;;4.23;49.78
29371;BME280;16357;52.188;7.838;2023-03-16T05:25:18;101047.19;;;4.25;49.70
29371;BME280;16357;52.188;7.838;2023-03-16T05:27:47;101036.44;;;4.26;49.60
29371;BME280;16357;52.188;7.838;2023-03-16T05:30:14;101031.88;;;4.28;49.81
29371;BME280;16357;52.188;7.838;2023-03-16T05:32:44;101038.91;;;4.29;49.78
29371;BME280;16357;52.188;7.838;2023-03-16T05:35:11;101041.44;;;4.31;49.58
29371;BME280;16357;52.188;7.838;2023-03-16T05:37:42;101036.97;;;4.31;49.55
29371;BME280;16357;52.188;7.838;2023-03-16T05:40:11;101039.53;;;4.33;49.64
29371;BME280;16357;52.188;7.838;2023-03-16T05:42:52;101039.31;;;4.36;49.49
29371;BME280;16357;52.188;7.838;2023-03-16T05:45:19;101052.50;;;4.37;49.63
29371;BME280;16357;52.188;7.838;2023-03-16T05:47:45;101049.69;;;4.39;49.82
29371;BME280;16357;52.188;7.838;2023-03-16T05:50:13;101045.13;;;4.41;49.84
29371;BME280;16357;52.188;7.838;2023-03-16T05:52:43;101034.41;;;4.43;49.56
29371;BME280;16357;52.188;7.838;2023-03-16T05:55:11;101036.94;;;4.44;49.67
29371;BME280;16357;52.188;7.838;2023-03-16T05:57:37;101038.66;;;4.45;49.70
29371;BME280;16357;52.188;7.838;2023-03-16T06:00:05;101040.34;;;4.46;49.61
29371;BME280;16357;52.188;7.838;2023-03-16T06:02:43;101048.00;;;4.51;49.68
29371;BME280;16357;52.188;7.838;2023-03-16T06:05:09;101044.38;;;4.52;49.36
29371;BME280;16357;52.188;7.838;2023-03-16T06:07:36;101040.03;;;4.51;49.72
29371;BME280;16357;52.188;7.838;2023-03-16T06:10:03;101040.88;;;4.51;49.83
29371;BME280;16357;52.188;7.838;2023-03-16T06:12:30;101036.31;;;4.53;49.44
29371;BME280;16357;52.188;7.838;2023-03-16T06:14:56;101033.50;;;4.55;49.90
29371;BME280;16357;52.188;7.838;2023-03-16T06:17:23;101026.28;;;4.57;49.88
29371;BME280;16357;52.188;7.838;2023-03-16T06:19:49;101029.69;;;4.59;49.68
29371;BME280;16357;52.188;7.838;2023-03-16T06:22:16;101030.31;;;4.62;49.94
29371;BME280;16357;52.188;7.838;2023-03-16T06:24:43;101035.41;;;4.66;49.48
29371;BME280;16357;52.188;7.838;2023-03-16T06:27:10;101041.38;;;4.69;49.82
29371;BME280;16357;52.188;7.838;2023-03-16T06:29:36;101037.50;;;4.73;49.62
29371;BME280;16357;52.188;7.838;2023-03-16T06:32:03;101032.84;;;4.77;49.83
29371;BME280;16357;52.188;7.838;2023-03-16T06:34:30;101031.63;;;4.81;49.38
29371;BME280;16357;52.188;7.838;2023-03-16T06:36:56;101033.13;;;4.85;49.46
29371;BME280;16357;52.188;7.838;2023-03-16T06:39:23;101031.06;;;4.89;49.54
29371;BME280;16357;52.188;7.838;2023-03-16T06:41:49;101030.59;;;4.95;49.49
29371;BME280;16357;52.188;7.838;2023-03-16T06:44:15;101037.41;;;4.99;49.95
29371;BME280;16357;52.188;7.838;2023-03-16T06:46:42;101040.59;;;5.04;49.60
29371;BME280;16357;52.188;7.838;2023-03-16T06:49:08;101038.44;;;5.09;49.48
29371;BME280;16357;52.188;7.838;2023-03-16T06:51:34;101033.63;;;5.14;49.37
29371;BME280;16357;52.188;7.838;2023-03-16T06:54:01;101032.41;;;5.18;49.57
29371;BME280;16357;52.188;7.838;2023-03-16T06:56:27;101046.22;;;5.23;49.20
29371;BME280;16357;52.188;7.838;2023-03-16T06:58:54;101040.47;;;5.30;49.26
29371;BME280;16357;52.188;7.838;2023-03-16T07:01:20;101043.63;;;5.35;48.88
29371;BME280;16357;52.188;7.838;2023-03-16T07:03:48;101053.91;;;5.39;49.03
29371;BME280;16357;52.188;7.838;2023-03-16T07:06:15;101042.06;;;5.43;48.79
29371;BME280;16357;52.188;7.838;2023-03-16T07:08:42;101046.94;;;5.49;48.71
29371;BME280;16357;52.188;7.838;2023-03-16T07:11:09;101053.84;;;5.52;48.93
29371;BME280;16357;52.188;7.838;2023-03-16T07:13:36;101053.38;;;5.58;48.92
29371;BME280;16357;52.188;7.838;2023-03-16T07:16:02;101062.81;;;5.62;48.69
29371;BME280;16357;52.188;7.838;2023-03-16T07:18:30;101059.91;;;5.65;48.65
29371;BME280;16357;52.188;7.838;2023-03-16T07:20:57;101065.75;;;5.70;48.87
29371;BME280;16357;52.188;7.838;2023-03-16T07:23:23;101056.56;;;5.75;48.80
29371;BME280;16357;52.188;7.838;2023-03-16T07:25:50;101058.75;;;5.81;48.80
29371;BME280;16357;52.188;7.838;2023-03-16T07:28:18;101060.22;;;5.85;49.14
29371;BME280;16357;52.188;7.838;2023-03-16T07:30:45;101063.38;;;5.90;48.40
29371;BME280;16357;52.188;7.838;2023-03-16T07:33:29;101051.31;;;5.97;48.43
29371;BME280;16357;52.188;7.838;2023-03-16T07:35:55;101057.97;;;6.03;48.23
29371;BME280;16357;52.188;7.838;2023-03-16T07:38:22;101048.66;;;6.08;48.34
29371;BME280;16357;52.188;7.838;2023-03-16T07:40:49;101040.19;;;6.14;48.19
29371;BME280;16357;52.188;7.838;2023-03-16T07:43:17;101045.75;;;6.23;48.27
29371;BME280;16357;52.188;7.838;2023-03-16T07:45:48;101047.72;;;6.32;48.23
29371;BME280;16357;52.188;7.838;2023-03-16T07:48:15;101042.63;;;6.40;47.98
29371;BME280;16357;52.188;7.838;2023-03-16T07:50:42;101045.53;;;6.48;47.98
29371;BME280;16357;52.188;7.838;2023-03-16T07:53:09;101051.09;;;6.56;48.26
29371;BME280;16357;52.188;7.838;2023-03-16T07:55:35;101040.53;;;6.66;47.83
29371;BME280;16357;52.188;7.838;2023-03-16T07:58:04;101045.22;;;6.74;48.02
29371;BME280;16357;52.188;7.838;2023-03-16T08:00:32;101042.81;;;6.82;47.65
29371;BME280;16357;52.188;7.838;2023-03-16T08:02:59;101045.69;;;6.90;47.67
29371;BME280;16357;52.188;7.838;2023-03-16T08:05:25;101053.91;;;6.98;47.63
29371;BME280;16357;52.188;7.838;2023-03-16T08:07:53;101046.13;;;7.07;47.67
29371;BME280;16357;52.188;7.838;2023-03-16T08:10:21;101056.03;;;7.16;47.60
29371;BME280;16357;52.188;7.838;2023-03-16T08:12:48;101049.94;;;7.25;47.09
29371;BME280;16357;52.188;7.838;2023-03-16T08:15:14;101054.50;;;7.34;46.92
29371;BME280;16357;52.188;7.838;2023-03-16T08:17:41;101051.19;;;7.42;47.06
29371;BME280;16357;52.188;7.838;2023-03-16T08:20:08;101060.28;;;7.51;47.02
29371;BME280;16357;52.188;7.838;2023-03-16T08:22:37;101055.13;;;7.59;47.15
29371;BME280;16357;52.188;7.838;2023-03-16T08:25:05;101062.34;;;7.68;46.66
29371;BME280;16357;52.188;7.838;2023-03-16T08:27:31;101058.19;;;7.75;46.68
29371;BME280;16357;52.188;7.838;2023-03-16T08:29:58;101066.50;;;7.82;46.35
29371;BME280;16357;52.188;7.838;2023-03-16T08:32:31;101062.22;;;7.90;46.05
29371;BME280;16357;52.188;7.838;2023-03-16T08:34:57;101059.03;;;7.97;46.04
29371;BME280;16357;52.188;7.838;2023-03-16T08:37:25;101058.50;;;8.03;46.15
29371;BME280;16357;52.188;7.838;2023-03-16T08:39:52;101066.72;;;8.11;45.84
29371;BME280;16357;52.188;7.838;2023-03-16T08:42:19;101062.50;;;8.18;46.15
29371;BME280;16357;52.188;7.838;2023-03-16T08:44:46;101058.22;;;8.27;45.80
29371;BME280;16357;52.188;7.838;2023-03-16T08:47:16;101056.41;;;8.37;46.15
29371;BME280;16357;52.188;7.838;2023-03-16T08:49:43;101053.81;;;8.47;46.12
29371;BME280;16357;52.188;7.838;2023-03-16T08:52:10;101060.75;;;8.59;46.03
29371;BME280;16357;52.188;7.838;2023-03-16T08:54:38;101054.47;;;8.70;45.92
29371;BME280;16357;52.188;7.838;2023-03-16T08:57:04;101048.84;;;8.83;45.62
29371;BME280;16357;52.188;7.838;2023-03-16T08:59:31;101046.78;;;8.96;45.24
29371;BME280;16357;52.188;7.838;2023-03-16T09:01:57;101046.63;;;9.07;45.15
29371;BME280;16357;52.188;7.838;2023-03-16T09:04:24;101045.53;;;9.19;45.25
29371;BME280;16357;52.188;7.838;2023-03-16T09:06:50;101044.38;;;9.32;44.83
29371;BME280;16357;52.188;7.838;2023-03-16T09:09:33;101042.28;;;9.45;44.79
29371;BME280;16357;52.188;7.838;2023-03-16T09:12:01;101048.34;;;9.57;44.72
29371;BME280;16357;52.188;7.838;2023-03-16T09:14:29;101042.69;;;9.70;44.73
29371;BME280;16357;52.188;7.838;2023-03-16T09:16:56;101040.56;;;9.83;44.59
29371;BME280;16357;52.188;7.838;2023-03-16T09:19:22;101042.94;;;9.96;44.36
29371;BME280;16357;52.188;7.838;2023-03-16T09:21:50;101028.22;;;10.09;44.45
29371;BME280;16357;52.188;7.838;2023-03-16T09:24:16;101028.72;;;10.23;43.82
29371;BME280;16357;52.188;7.838;2023-03-16T09:26:42;101025.75;;;10.36;43.68
29371;BME280;16357;52.188;7.838;2023-03-16T09:29:09;101023.69;;;10.47;43.59
29371;BME280;16357;52.188;7.838;2023-03-16T09:31:36;101020.84;;;10.59;43.32
29371;BME280;16357;52.188;7.838;2023-03-16T09:34:02;101018.06;;;10.68;42.75
29371;BME280;16357;52.188;7.838;2023-03-16T09:36:30;101020.00;;;10.76;42.92
29371;BME280;16357;52.188;7.838;2023-03-16T09:38:56;101014.59;;;10.86;42.98
29371;BME280;16357;52.188;7.838;2023-03-16T09:42:01;101018.91;;;10.96;43.23
29371;BME280;16357;52.188;7.838;2023-03-16T09:44:45;101017.50;;;11.10;43.17
29371;BME280;16357;52.188;7.838;2023-03-16T09:47:14;101027.88;;;11.23;43.17
29371;BME280;16357;52.188;7.838;2023-03-16T09:49:46;101018.41;;;11.37;42.72
29371;BME280;16357;52.188;7.838;2023-03-16T09:52:23;101019.03;;;11.49;42.28
29371;BME280;16357;52.188;7.838;2023-03-16T09:55:11;101018.63;;;11.61;42.01
29371;BME280;16357;52.188;7.838;2023-03-16T09:57:42;101023.06;;;11.71;41.39
29371;BME280;16357;52.188;7.838;2023-03-16T10:00:16;101017.91;;;11.77;41.56
29371;BME280;16357;52.188;7.838;2023-03-16T10:05:38;101017.69;;;11.89;40.63
29371;BME280;16357;52.188;7.838;2023-03-16T10:10:41;101013.38;;;11.96;40.49
29371;BME280;16357;52.188;7.838;2023-03-16T10:15:58;101013.03;;;11.99;40.57
29371;BME280;16357;52.188;7.838;2023-03-16T10:18:31;101017.59;;;11.98;40.22
29371;BME280;16357;52.188;7.838;2023-03-16T10:20:58;101018.75;;;11.96;40.05
29371;BME280;16357;52.188;7.838;2023-03-16T10:23:25;101018.56;;;11.97;39.89
29371;BME280;16357;52.188;7.838;2023-03-16T10:25:55;101024.63;;;11.99;40.33
29371;BME280;16357;52.188;7.838;2023-03-16T10:28:26;101024.31;;;12.02;40.12
29371;BME280;16357;52.188;7.838;2023-03-16T10:30:56;101021.47;;;12.04;39.77
29371;BME280;16357;52.188;7.838;2023-03-16T10:33:31;101023.69;;;12.08;39.90
29371;BME280;16357;52.188;7.838;2023-03-16T10:36:24;101016.28;;;12.11;40.21
29371;BME280;16357;52.188;7.838;2023-03-16T10:38:57;101016.97;;;12.13;39.51
29371;BME280;16357;52.188;7.838;2023-03-16T10:41:35;101010.06;;;12.10;39.47
29371;BME280;16357;52.188;7.838;2023-03-16T10:44:09;101013.09;;;12.07;39.67
29371;BME280;16357;52.188;7.838;2023-03-16T10:46:46;101001.81;;;12.03;39.37
29371;BME280;16357;52.188;7.838;2023-03-16T10:49:26;101004.97;;;11.99;39.65
29371;BME280;16357;52.188;7.838;2023-03-16T10:51:55;100997.38;;;11.94;39.55
29371;BME280;16357;52.188;7.838;2023-03-16T10:54:56;100991.31;;;11.92;39.77
29371;BME280;16357;52.188;7.838;2023-03-16T10:57:33;100985.41;;;11.89;39.79
29371;BME280;16357;52.188;7.838;2023-03-16T11:02:38;101001.16;;;11.83;39.54
29371;BME280;16357;52.188;7.838;2023-03-16T11:07:48;101010.50;;;11.79;39.91
29371;BME280;16357;52.188;7.838;2023-03-16T11:10:28;101010.00;;;11.76;40.21
29371;BME280;16357;52.188;7.838;2023-03-16T11:13:17;101017.53;;;11.72;40.12
29371;BME280;16357;52.188;7.838;2023-03-16T11:15:55;101009.94;;;11.68;40.23
29371;BME280;16357;52.188;7.838;2023-03-16T11:18:31;101002.34;;;11.63;40.03
29371;BME280;16357;52.188;7.838;2023-03-16T11:23:54;101001.59;;;11.53;40.97
29371;BME280;16357;52.188;7.838;2023-03-16T11:26:26;100999.22;;;11.50;41.27
29371;BME280;16357;52.188;7.838;2023-03-16T11:29:05;100990.47;;;11.48;41.46
29371;BME280;16357;52.188;7.838;2023-03-16T11:31:41;100979.72;;;11.48;41.49
29371;BME280;16357;52.188;7.838;2023-03-16T11:34:16;100980.28;;;11.51;41.60
29371;BME280;16357;52.188;7.838;2023-03-16T11:45:05;100965.78;;;11.70;41.96
29371;BME280;16357;52.188;7.838;2023-03-16T11:56:33;100937.75;;;11.99;42.01
29371;BME280;16357;52.188;7.838;2023-03-16T11:59:12;100939.31;;;12.10;42.22
29371;BME280;16357;52.188;7.838;2023-03-16T12:05:03;100930.00;;;12.38;41.71
29371;BME280;16357;52.188;7.838;2023-03-16T12:10:39;100921.84;;;12.64;41.23
29371;BME280;16357;52.188;7.838;2023-03-16T12:15:49;100909.72;;;12.77;40.70
29371;BME280;16357;52.188;7.838;2023-03-16T12:18:21;100915.44;;;12.82;40.76
29371;BME280;16357;52.188;7.838;2023-03-16T12:20:53;100911.25;;;12.87;40.42
29371;BME280;16357;52.188;7.838;2023-03-16T12:23:28;100903.50;;;12.92;40.24
29371;BME280;16357;52.188;7.838;2023-03-16T12:25:56;100894.94;;;12.97;40.04
29371;BME280;16357;52.188;7.838;2023-03-16T12:28:28;100891.75;;;13.02;39.80
29371;BME280;16357;52.188;7.838;2023-03-16T12:31:08;100887.53;;;13.07;39.92
29371;BME280;16357;52.188;7.838;2023-03-16T12:34:02;100874.38;;;13.12;39.85
29371;BME280;16357;52.188;7.838;2023-03-16T12:37:12;100848.97;;;13.15;39.95
29371;BME280;16357;52.188;7.838;2023-03-16T12:39:56;100848.47;;;13.20;39.49
29371;BME280;16357;52.188;7.838;2023-03-16T12:42:55;100839.69;;;13.26;39.72
29371;BME280;16357;52.188;7.838;2023-03-16T12:45:32;100830.28;;;13.30;39.60
29371;BME280;16357;52.188;7.838;2023-03-16T12:50:52;100814.09;;;13.38;38.62
29371;BME280;16357;52.188;7.838;2023-03-16T12:56:11;100805.00;;;13.39;38.16
29371;BME280;16357;52.188;7.838;2023-03-16T12:58:43;100793.53;;;13.37;38.13
29371;BME280;16357;52.188;7.838;2023-03-16T13:01:11;100798.94;;;13.37;38.35
29371;BME280;16357;52.188;7.838;2023-03-16T13:03:41;100795.25;;;13.38;38.08
29371;BME280;16357;52.188;7.838;2023-03-16T13:06:17;100797.56;;;13.41;38.62
29371;BME280;16357;52.188;7.838;2023-03-16T13:08:46;100796.53;;;13.50;39.55
29371;BME280;16357;52.188;7.838;2023-03-16T13:11:13;100786.91;;;13.56;38.52
29371;BME280;16357;52.188;7.838;2023-03-16T13:14:05;100772.22;;;13.67;38.89
29371;BME280;16357;52.188;7.838;2023-03-16T13:16:35;100771.50;;;13.73;37.87
29371;BME280;16357;52.188;7.838;2023-03-16T13:19:24;100771.47;;;13.81;38.35
29371;BME280;16357;52.188;7.838;2023-03-16T13:22:18;100765.34;;;13.87;38.28
29371;BME280;16357;52.188;7.838;2023-03-16T13:25:15;100761.09;;;13.93;37.94
29371;BME280;16357;52.188;7.838;2023-03-16T13:27:38;100759.56;;;13.98;37.67
29371;BME280;16357;52.188;7.838;2023-03-16T13:30:33;100752.63;;;14.04;37.94
29371;BME280;16357;52.188;7.838;2023-03-16T13:33:26;100746.84;;;14.07;37.38
29371;BME280;16357;52.188;7.838;2023-03-16T13:35:53;100746.19;;;14.05;36.96
29371;BME280;16357;52.188;7.838;2023-03-16T13:38:22;100750.09;;;14.02;36.84
29371;BME280;16357;52.188;7.838;2023-03-16T13:40:55;100742.34;;;13.99;37.03
29371;BME280;16357;52.188;7.838;2023-03-16T13:43:28;100734.63;;;13.96;36.84
29371;BME280;16357;52.188;7.838;2023-03-16T13:45:55;100726.41;;;13.90;36.76
29371;BME280;16357;52.188;7.838;2023-03-16T13:48:21;100728.63;;;13.86;36.58
29371;BME280;16357;52.188;7.838;2023-03-16T13:50:53;100721.72;;;13.83;36.70
29371;BME280;16357;52.188;7.838;2023-03-16T13:53:22;100719.38;;;13.80;36.75
29371;BME280;16357;52.188;7.838;2023-03-16T13:55:50;100715.19;;;13.78;36.91
29371;BME280;16357;52.188;7.838;2023-03-16T13:58:25;100709.81;;;13.78;37.12
29371;BME280;16357;52.188;7.838;2023-03-16T14:00:55;100709.28;;;13.74;36.57
29371;BME280;16357;52.188;7.838;2023-03-16T14:03:23;100710.53;;;13.72;36.28
29371;BME280;16357;52.188;7.838;2023-03-16T14:05:56;100700.06;;;13.69;36.11
29371;BME280;16357;52.188;7.838;2023-03-16T14:08:23;100704.16;;;13.65;36.18